sensor_id;sensor_type;location;lat;lon;timestamp;P1;durP1;ratioP1;P2;durP2;ratioP2
11039;SDS011;5573;49.592;8.662;2024-01-30T00:00:10;20.13;;;19.10;;
11039;SDS011;5573;49.592;8.662;2024-01-30T00:02:38;21.23;;;20.13;;
11039;SDS011;5573;49.592;8.662;2024-01-30T00:05:06;20.70;;;19.40;;
11039;SDS011;5573;49.592;8.662;2024-01-30T00:07:34;22.67;;;21.47;;
11039;SDS011;5573;49.592;8.662;2024-01-30T00:10:02;21.63;;;20.53;;
11039;SDS011;5573;49.592;8.662;2024-01-30T00:12:32;20.83;;;19.77;;
11039;SDS011;5573;49.592;8.662;2024-01-30T00:15:00;21.97;;;20.83;;
11039;SDS011;5573;49.592;8.662;2024-01-30T00:17:30;21.43;;;20.33;;
11039;SDS011;5573;49.592;8.662;2024-01-30T00:19:59;21.17;;;20.07;;
11039;SDS011;5573;49.592;8.662;2024-01-30T00:22:27;19.80;;;18.80;;
11039;SDS011;5573;49.592;8.662;2024-01-30T00:24:57;21.53;;;20.43;;
11039;SDS011;5573;49.592;8.662;2024-01-30T00:27:25;20.33;;;19.30;;
11039;SDS011;5573;49.592;8.662;2024-01-30T00:29:54;21.23;;;20.10;;
11039;SDS011;5573;49.592;8.662;2024-01-30T00:32:22;20.80;;;19.70;;
11039;SDS011;5573;49.592;8.662;2024-01-30T00:34:50;21.43;;;20.30;;
11039;SDS011;5573;49.592;8.662;2024-01-30T00:37:19;21.87;;;20.73;;
11039;SDS011;5573;49.592;8.662;2024-01-30T00:39:47;20.93;;;19.90;;
11039;SDS011;5573;49.592;8.662;2024-01-30T00:42:15;21.13;;;20.10;;
11039;SDS011;5573;49.592;8.662;2024-01-30T00:44:43;22.40;;;21.20;;
11039;SDS011;5573;49.592;8.662;2024-01-30T00:47:12;21.17;;;20.03;;
11039;SDS011;5573;49.592;8.662;2024-01-30T00:49:40;20.17;;;19.07;;
11039;SDS011;5573;49.592;8.662;2024-01-30T00:52:08;21.37;;;20.30;;
11039;SDS011;5573;49.592;8.662;2024-01-30T00:54:36;20.40;;;19.40;;
11039;SDS011;5573;49.592;8.662;2024-01-30T00:57:04;20.80;;;19.70;;
11039;SDS011;5573;49.592;8.662;2024-01-30T00:59:32;19.17;;;18.23;;
11039;SDS011;5573;49.592;8.662;2024-01-30T01:02:00;19.77;;;18.73;;
11039;SDS011;5573;49.592;8.662;2024-01-30T01:04:30;20.00;;;19.00;;
11039;SDS011;5573;49.592;8.662;2024-01-30T01:06:58;20.00;;;19.00;;
11039;SDS011;5573;49.592;8.662;2024-01-30T01:09:26;21.83;;;20.73;;
11039;SDS011;5573;49.592;8.662;2024-01-30T01:11:54;22.17;;;20.97;;
11039;SDS011;5573;49.592;8.662;2024-01-30T01:14:22;23.50;;;22.30;;
11039;SDS011;5573;49.592;8.662;2024-01-30T01:16:50;24.67;;;23.40;;
11039;SDS011;5573;49.592;8.662;2024-01-30T01:19:18;21.50;;;20.40;;
11039;SDS011;5573;49.592;8.662;2024-01-30T01:21:48;21.83;;;20.70;;
11039;SDS011;5573;49.592;8.662;2024-01-30T01:24:16;23.30;;;22.10;;
11039;SDS011;5573;49.592;8.662;2024-01-30T01:26:44;25.70;;;24.30;;
11039;SDS011;5573;49.592;8.662;2024-01-30T01:29:12;23.03;;;21.87;;
11039;SDS011;5573;49.592;8.662;2024-01-30T01:31:42;22.50;;;21.30;;
11039;SDS011;5573;49.592;8.662;2024-01-30T01:34:11;22.03;;;20.93;;
11039;SDS011;5573;49.592;8.662;2024-01-30T01:36:39;22.60;;;21.47;;
11039;SDS011;5573;49.592;8.662;2024-01-30T01:39:08;24.83;;;23.57;;
11039;SDS011;5573;49.592;8.662;2024-01-30T01:41:37;23.47;;;22.27;;
11039;SDS011;5573;49.592;8.662;2024-01-30T01:44:05;22.57;;;21.37;;
11039;SDS011;5573;49.592;8.662;2024-01-30T01:46:33;23.23;;;22.03;;
11039;SDS011;5573;49.592;8.662;2024-01-30T01:49:01;23.40;;;22.20;;
11039;SDS011;5573;49.592;8.662;2024-01-30T01:51:31;22.43;;;21.33;;
11039;SDS011;5573;49.592;8.662;2024-01-30T01:53:59;21.80;;;20.70;;
11039;SDS011;5573;49.592;8.662;2024-01-30T01:56:31;19.80;;;18.80;;
11039;SDS011;5573;49.592;8.662;2024-01-30T01:58:59;22.97;;;21.80;;
11039;SDS011;5573;49.592;8.662;2024-01-30T02:01:27;21.10;;;20.03;;
11039;SDS011;5573;49.592;8.662;2024-01-30T02:03:57;21.43;;;20.33;;
11039;SDS011;5573;49.592;8.662;2024-01-30T02:06:25;20.07;;;19.10;;
11039;SDS011;5573;49.592;8.662;2024-01-30T02:08:54;22.50;;;21.40;;
11039;SDS011;5573;49.592;8.662;2024-01-30T02:11:22;19.53;;;18.57;;
11039;SDS011;5573;49.592;8.662;2024-01-30T02:13:52;21.27;;;20.17;;
11039;SDS011;5573;49.592;8.662;2024-01-30T02:16:20;21.87;;;20.63;;
11039;SDS011;5573;49.592;8.662;2024-01-30T02:18:48;21.13;;;20.10;;
11039;SDS011;5573;49.592;8.662;2024-01-30T02:21:17;20.97;;;19.93;;
11039;SDS011;5573;49.592;8.662;2024-01-30T02:23:46;20.47;;;19.40;;
11039;SDS011;5573;49.592;8.662;2024-01-30T02:26:14;20.87;;;19.83;;
11039;SDS011;5573;49.592;8.662;2024-01-30T02:28:42;19.67;;;18.67;;
11039;SDS011;5573;49.592;8.662;2024-01-30T02:31:10;19.83;;;18.83;;
11039;SDS011;5573;49.592;8.662;2024-01-30T02:33:38;22.30;;;21.20;;
11039;SDS011;5573;49.592;8.662;2024-01-30T02:36:06;19.90;;;18.90;;
11039;SDS011;5573;49.592;8.662;2024-01-30T02:38:36;21.33;;;20.23;;
11039;SDS011;5573;49.592;8.662;2024-01-30T02:41:03;22.93;;;21.73;;
11039;SDS011;5573;49.592;8.662;2024-01-30T02:43:32;21.80;;;20.67;;
11039;SDS011;5573;49.592;8.662;2024-01-30T02:45:59;22.90;;;21.77;;
11039;SDS011;5573;49.592;8.662;2024-01-30T02:48:28;23.20;;;22.00;;
11039;SDS011;5573;49.592;8.662;2024-01-30T02:50:55;25.20;;;23.90;;
11039;SDS011;5573;49.592;8.662;2024-01-30T02:53:24;22.53;;;21.33;;
11039;SDS011;5573;49.592;8.662;2024-01-30T02:55:53;22.63;;;21.33;;
11039;SDS011;5573;49.592;8.662;2024-01-30T02:58:21;21.37;;;20.30;;
11039;SDS011;5573;49.592;8.662;2024-01-30T03:00:49;21.80;;;20.60;;
11039;SDS011;5573;49.592;8.662;2024-01-30T03:03:17;22.50;;;21.33;;
11039;SDS011;5573;49.592;8.662;2024-01-30T03:05:46;21.40;;;20.30;;
11039;SDS011;5573;49.592;8.662;2024-01-30T03:08:13;25.47;;;24.17;;
11039;SDS011;5573;49.592;8.662;2024-01-30T03:10:42;23.93;;;22.63;;
11039;SDS011;5573;49.592;8.662;2024-01-30T03:13:11;23.30;;;22.10;;
11039;SDS011;5573;49.592;8.662;2024-01-30T03:15:39;22.67;;;21.50;;
11039;SDS011;5573;49.592;8.662;2024-01-30T03:18:06;22.87;;;21.63;;
11039;SDS011;5573;49.592;8.662;2024-01-30T03:20:35;20.17;;;19.13;;
11039;SDS011;5573;49.592;8.662;2024-01-30T03:23:03;23.70;;;22.43;;
11039;SDS011;5573;49.592;8.662;2024-01-30T03:25:32;22.70;;;21.50;;
11039;SDS011;5573;49.592;8.662;2024-01-30T03:27:59;23.83;;;22.63;;
11039;SDS011;5573;49.592;8.662;2024-01-30T03:30:29;25.63;;;24.33;;
11039;SDS011;5573;49.592;8.662;2024-01-30T03:32:58;26.63;;;25.23;;
11039;SDS011;5573;49.592;8.662;2024-01-30T03:35:26;23.33;;;22.03;;
11039;SDS011;5573;49.592;8.662;2024-01-30T03:37:54;23.63;;;22.40;;
11039;SDS011;5573;49.592;8.662;2024-01-30T03:40:22;24.43;;;23.03;;
11039;SDS011;5573;49.592;8.662;2024-01-30T03:42:50;24.17;;;22.97;;
11039;SDS011;5573;49.592;8.662;2024-01-30T03:45:18;23.17;;;21.97;;
11039;SDS011;5573;49.592;8.662;2024-01-30T03:47:48;25.43;;;24.03;;
11039;SDS011;5573;49.592;8.662;2024-01-30T03:50:16;26.33;;;24.93;;
11039;SDS011;5573;49.592;8.662;2024-01-30T03:52:44;25.13;;;23.87;;
11039;SDS011;5573;49.592;8.662;2024-01-30T03:55:12;27.57;;;26.17;;
11039;SDS011;5573;49.592;8.662;2024-01-30T03:57:40;25.73;;;24.27;;
11039;SDS011;5573;49.592;8.662;2024-01-30T04:00:08;24.97;;;23.70;;
11039;SDS011;5573;49.592;8.662;2024-01-30T04:02:40;29.40;;;27.87;;
11039;SDS011;5573;49.592;8.662;2024-01-30T04:05:09;29.43;;;27.87;;
11039;SDS011;5573;49.592;8.662;2024-01-30T04:07:37;28.67;;;27.13;;
11039;SDS011;5573;49.592;8.662;2024-01-30T04:10:05;28.50;;;26.97;;
11039;SDS011;5573;49.592;8.662;2024-01-30T04:12:34;28.80;;;27.17;;
11039;SDS011;5573;49.592;8.662;2024-01-30T04:15:02;29.60;;;28.10;;
11039;SDS011;5573;49.592;8.662;2024-01-30T04:17:31;28.30;;;26.57;;
11039;SDS011;5573;49.592;8.662;2024-01-30T04:19:59;26.43;;;25.07;;
11039;SDS011;5573;49.592;8.662;2024-01-30T04:22:29;28.73;;;27.20;;
11039;SDS011;5573;49.592;8.662;2024-01-30T04:24:57;28.63;;;27.00;;
11039;SDS011;5573;49.592;8.662;2024-01-30T04:27:25;29.17;;;27.63;;
11039;SDS011;5573;49.592;8.662;2024-01-30T04:29:54;31.33;;;29.63;;
11039;SDS011;5573;49.592;8.662;2024-01-30T04:32:22;34.73;;;32.93;;
11039;SDS011;5573;49.592;8.662;2024-01-30T04:34:50;35.80;;;33.87;;
11039;SDS011;5573;49.592;8.662;2024-01-30T04:37:18;36.93;;;34.90;;
11039;SDS011;5573;49.592;8.662;2024-01-30T04:39:48;33.83;;;31.97;;
11039;SDS011;5573;49.592;8.662;2024-01-30T04:42:16;37.63;;;35.60;;
11039;SDS011;5573;49.592;8.662;2024-01-30T04:44:44;38.17;;;36.17;;
11039;SDS011;5573;49.592;8.662;2024-01-30T04:47:12;37.27;;;35.23;;
11039;SDS011;5573;49.592;8.662;2024-01-30T04:49:39;33.83;;;31.90;;
11039;SDS011;5573;49.592;8.662;2024-01-30T04:52:08;30.87;;;29.27;;
11039;SDS011;5573;49.592;8.662;2024-01-30T04:54:36;33.60;;;31.73;;
11039;SDS011;5573;49.592;8.662;2024-01-30T04:57:05;33.93;;;32.10;;
11039;SDS011;5573;49.592;8.662;2024-01-30T04:59:36;35.90;;;34.07;;
11039;SDS011;5573;49.592;8.662;2024-01-30T05:02:04;37.37;;;35.37;;
11039;SDS011;5573;49.592;8.662;2024-01-30T05:04:32;32.83;;;31.13;;
11039;SDS011;5573;49.592;8.662;2024-01-30T05:07:01;29.07;;;27.47;;
11039;SDS011;5573;49.592;8.662;2024-01-30T05:09:29;29.47;;;27.87;;
11039;SDS011;5573;49.592;8.662;2024-01-30T05:11:57;29.97;;;28.27;;
11039;SDS011;5573;49.592;8.662;2024-01-30T05:14:27;29.70;;;28.03;;
11039;SDS011;5573;49.592;8.662;2024-01-30T05:16:55;27.23;;;25.77;;
11039;SDS011;5573;49.592;8.662;2024-01-30T05:19:23;30.53;;;28.93;;
11039;SDS011;5573;49.592;8.662;2024-01-30T05:21:51;31.17;;;29.57;;
11039;SDS011;5573;49.592;8.662;2024-01-30T05:24:19;31.90;;;30.27;;
11039;SDS011;5573;49.592;8.662;2024-01-30T05:26:49;32.37;;;30.47;;
11039;SDS011;5573;49.592;8.662;2024-01-30T05:29:17;32.27;;;30.60;;
11039;SDS011;5573;49.592;8.662;2024-01-30T05:31:47;30.80;;;29.13;;
11039;SDS011;5573;49.592;8.662;2024-01-30T05:34:15;32.20;;;30.53;;
11039;SDS011;5573;49.592;8.662;2024-01-30T05:36:43;30.40;;;28.60;;
11039;SDS011;5573;49.592;8.662;2024-01-30T05:39:11;28.00;;;26.57;;
11039;SDS011;5573;49.592;8.662;2024-01-30T05:41:39;29.90;;;28.27;;
11039;SDS011;5573;49.592;8.662;2024-01-30T05:44:08;29.47;;;27.87;;
11039;SDS011;5573;49.592;8.662;2024-01-30T05:46:35;29.63;;;28.03;;
11039;SDS011;5573;49.592;8.662;2024-01-30T05:49:05;31.83;;;30.17;;
11039;SDS011;5573;49.592;8.662;2024-01-30T05:51:33;29.57;;;27.87;;
11039;SDS011;5573;49.592;8.662;2024-01-30T05:54:01;27.93;;;26.50;;
11039;SDS011;5573;49.592;8.662;2024-01-30T05:56:30;30.97;;;29.30;;
11039;SDS011;5573;49.592;8.662;2024-01-30T05:58:58;28.63;;;27.13;;
11039;SDS011;5573;49.592;8.662;2024-01-30T06:01:26;23.50;;;22.30;;
11039;SDS011;5573;49.592;8.662;2024-01-30T06:03:54;25.43;;;24.10;;
11039;SDS011;5573;49.592;8.662;2024-01-30T06:06:23;25.47;;;24.03;;
11039;SDS011;5573;49.592;8.662;2024-01-30T06:08:51;26.33;;;24.87;;
11039;SDS011;5573;49.592;8.662;2024-01-30T06:11:21;24.70;;;23.40;;
11039;SDS011;5573;49.592;8.662;2024-01-30T06:13:50;25.43;;;24.10;;
11039;SDS011;5573;49.592;8.662;2024-01-30T06:16:17;25.93;;;24.53;;
11039;SDS011;5573;49.592;8.662;2024-01-30T06:18:48;25.83;;;24.43;;
11039;SDS011;5573;49.592;8.662;2024-01-30T06:21:16;26.50;;;25.00;;
11039;SDS011;5573;49.592;8.662;2024-01-30T06:23:45;28.47;;;27.00;;
11039;SDS011;5573;49.592;8.662;2024-01-30T06:26:13;29.90;;;28.27;;
11039;SDS011;5573;49.592;8.662;2024-01-30T06:28:41;27.90;;;26.47;;
11039;SDS011;5573;49.592;8.662;2024-01-30T06:31:09;30.23;;;28.63;;
11039;SDS011;5573;49.592;8.662;2024-01-30T06:33:37;28.87;;;27.27;;
11039;SDS011;5573;49.592;8.662;2024-01-30T06:36:06;28.80;;;27.30;;
11039;SDS011;5573;49.592;8.662;2024-01-30T06:38:34;31.93;;;30.30;;
11039;SDS011;5573;49.592;8.662;2024-01-30T06:41:03;33.93;;;32.13;;
11039;SDS011;5573;49.592;8.662;2024-01-30T06:43:31;29.57;;;28.03;;
11039;SDS011;5573;49.592;8.662;2024-01-30T06:45:59;31.63;;;29.93;;
11039;SDS011;5573;49.592;8.662;2024-01-30T06:48:27;30.17;;;28.67;;
11039;SDS011;5573;49.592;8.662;2024-01-30T06:50:56;28.70;;;27.20;;
11039;SDS011;5573;49.592;8.662;2024-01-30T06:53:24;27.50;;;26.10;;
11039;SDS011;5573;49.592;8.662;2024-01-30T06:55:53;28.20;;;26.73;;
11039;SDS011;5573;49.592;8.662;2024-01-30T06:58:22;28.53;;;27.03;;
11039;SDS011;5573;49.592;8.662;2024-01-30T07:00:51;27.57;;;26.20;;
11039;SDS011;5573;49.592;8.662;2024-01-30T07:03:19;30.60;;;29.00;;
11039;SDS011;5573;49.592;8.662;2024-01-30T07:05:47;29.30;;;27.70;;
11039;SDS011;5573;49.592;8.662;2024-01-30T07:08:15;31.23;;;29.60;;
11039;SDS011;5573;49.592;8.662;2024-01-30T07:10:44;28.57;;;27.07;;
11039;SDS011;5573;49.592;8.662;2024-01-30T07:13:12;31.73;;;30.10;;
11039;SDS011;5573;49.592;8.662;2024-01-30T07:15:44;32.13;;;30.50;;
11039;SDS011;5573;49.592;8.662;2024-01-30T07:18:13;31.03;;;29.43;;
11039;SDS011;5573;49.592;8.662;2024-01-30T07:20:41;31.40;;;29.80;;
11039;SDS011;5573;49.592;8.662;2024-01-30T07:23:12;29.43;;;27.93;;
11039;SDS011;5573;49.592;8.662;2024-01-30T07:25:42;27.53;;;26.13;;
11039;SDS011;5573;49.592;8.662;2024-01-30T07:28:13;27.37;;;26.00;;
11039;SDS011;5573;49.592;8.662;2024-01-30T07:30:44;29.57;;;28.07;;
11039;SDS011;5573;49.592;8.662;2024-01-30T07:33:14;26.93;;;25.43;;
11039;SDS011;5573;49.592;8.662;2024-01-30T07:35:43;27.70;;;26.27;;
11039;SDS011;5573;49.592;8.662;2024-01-30T07:38:11;28.27;;;26.77;;
11039;SDS011;5573;49.592;8.662;2024-01-30T07:40:40;28.53;;;27.07;;
11039;SDS011;5573;49.592;8.662;2024-01-30T07:43:08;30.47;;;28.83;;
11039;SDS011;5573;49.592;8.662;2024-01-30T07:45:37;31.97;;;30.27;;
11039;SDS011;5573;49.592;8.662;2024-01-30T07:48:06;35.47;;;33.67;;
11039;SDS011;5573;49.592;8.662;2024-01-30T07:50:34;37.83;;;35.87;;
11039;SDS011;5573;49.592;8.662;2024-01-30T07:53:03;36.30;;;34.20;;
11039;SDS011;5573;49.592;8.662;2024-01-30T07:55:31;33.90;;;32.10;;
11039;SDS011;5573;49.592;8.662;2024-01-30T07:58:00;30.50;;;28.90;;
11039;SDS011;5573;49.592;8.662;2024-01-30T08:00:28;30.73;;;29.07;;
11039;SDS011;5573;49.592;8.662;2024-01-30T08:02:57;29.87;;;28.30;;
11039;SDS011;5573;49.592;8.662;2024-01-30T08:05:27;28.03;;;26.53;;
11039;SDS011;5573;49.592;8.662;2024-01-30T08:07:55;25.93;;;24.57;;
11039;SDS011;5573;49.592;8.662;2024-01-30T08:10:24;25.40;;;24.00;;
11039;SDS011;5573;49.592;8.662;2024-01-30T08:12:51;27.67;;;26.13;;
11039;SDS011;5573;49.592;8.662;2024-01-30T08:15:20;28.57;;;27.07;;
11039;SDS011;5573;49.592;8.662;2024-01-30T08:17:47;28.03;;;26.53;;
11039;SDS011;5573;49.592;8.662;2024-01-30T08:20:16;29.00;;;27.40;;
11039;SDS011;5573;49.592;8.662;2024-01-30T08:22:46;28.23;;;26.67;;
11039;SDS011;5573;49.592;8.662;2024-01-30T08:25:13;30.27;;;28.67;;
11039;SDS011;5573;49.592;8.662;2024-01-30T08:27:42;31.77;;;30.00;;
11039;SDS011;5573;49.592;8.662;2024-01-30T08:30:11;32.07;;;30.37;;
11039;SDS011;5573;49.592;8.662;2024-01-30T08:32:39;27.67;;;26.27;;
11039;SDS011;5573;49.592;8.662;2024-01-30T08:35:07;31.17;;;29.47;;
11039;SDS011;5573;49.592;8.662;2024-01-30T08:37:36;30.90;;;29.20;;
11039;SDS011;5573;49.592;8.662;2024-01-30T08:40:06;33.63;;;31.83;;
11039;SDS011;5573;49.592;8.662;2024-01-30T08:42:35;32.53;;;30.87;;
11039;SDS011;5573;49.592;8.662;2024-01-30T08:45:04;32.80;;;30.83;;
11039;SDS011;5573;49.592;8.662;2024-01-30T08:47:32;38.57;;;36.47;;
11039;SDS011;5573;49.592;8.662;2024-01-30T08:50:00;37.40;;;35.40;;
11039;SDS011;5573;49.592;8.662;2024-01-30T08:52:29;40.23;;;38.07;;
11039;SDS011;5573;49.592;8.662;2024-01-30T08:54:57;38.00;;;35.90;;
11039;SDS011;5573;49.592;8.662;2024-01-30T08:57:26;41.93;;;39.77;;
11039;SDS011;5573;49.592;8.662;2024-01-30T08:59:55;38.43;;;36.43;;
11039;SDS011;5573;49.592;8.662;2024-01-30T09:02:23;36.13;;;34.10;;
11039;SDS011;5573;49.592;8.662;2024-01-30T09:04:51;37.93;;;35.93;;
11039;SDS011;5573;49.592;8.662;2024-01-30T09:07:20;39.00;;;36.90;;
11039;SDS011;5573;49.592;8.662;2024-01-30T09:09:48;36.57;;;34.57;;
11039;SDS011;5573;49.592;8.662;2024-01-30T09:12:16;36.10;;;34.20;;
11039;SDS011;5573;49.592;8.662;2024-01-30T09:14:45;32.20;;;30.47;;
11039;SDS011;5573;49.592;8.662;2024-01-30T09:17:13;34.55;;;32.55;;
11039;SDS011;5573;49.592;8.662;2024-01-30T09:19:41;31.92;;;30.25;;
11039;SDS011;5573;49.592;8.662;2024-01-30T09:22:10;30.90;;;29.25;;
11039;SDS011;5573;49.592;8.662;2024-01-30T09:24:37;33.60;;;31.77;;
11039;SDS011;5573;49.592;8.662;2024-01-30T09:27:05;31.60;;;29.93;;
11039;SDS011;5573;49.592;8.662;2024-01-30T09:29:33;31.52;;;29.75;;
11039;SDS011;5573;49.592;8.662;2024-01-30T09:32:05;32.22;;;30.50;;
11039;SDS011;5573;49.592;8.662;2024-01-30T09:34:34;31.58;;;29.80;;
11039;SDS011;5573;49.592;8.662;2024-01-30T09:37:02;33.25;;;31.48;;
11039;SDS011;5573;49.592;8.662;2024-01-30T09:39:31;31.52;;;29.80;;
11039;SDS011;5573;49.592;8.662;2024-01-30T09:42:01;30.73;;;29.08;;
11039;SDS011;5573;49.592;8.662;2024-01-30T09:44:30;27.85;;;26.20;;
11039;SDS011;5573;49.592;8.662;2024-01-30T09:46:58;30.80;;;29.08;;
11039;SDS011;5573;49.592;8.662;2024-01-30T09:49:32;31.52;;;29.73;;
11039;SDS011;5573;49.592;8.662;2024-01-30T09:52:01;34.15;;;32.30;;
11039;SDS011;5573;49.592;8.662;2024-01-30T09:54:30;31.83;;;29.95;;
11039;SDS011;5573;49.592;8.662;2024-01-30T09:57:02;32.42;;;30.63;;
11039;SDS011;5573;49.592;8.662;2024-01-30T09:59:30;28.60;;;27.05;;
11039;SDS011;5573;49.592;8.662;2024-01-30T10:01:58;30.70;;;29.05;;
11039;SDS011;5573;49.592;8.662;2024-01-30T10:04:26;33.65;;;31.85;;
11039;SDS011;5573;49.592;8.662;2024-01-30T10:06:56;31.23;;;29.60;;
11039;SDS011;5573;49.592;8.662;2024-01-30T10:09:25;29.02;;;27.52;;
11039;SDS011;5573;49.592;8.662;2024-01-30T10:11:54;30.20;;;28.63;;
11039;SDS011;5573;49.592;8.662;2024-01-30T10:14:22;32.10;;;30.35;;
11039;SDS011;5573;49.592;8.662;2024-01-30T10:16:50;32.42;;;30.65;;
11039;SDS011;5573;49.592;8.662;2024-01-30T10:19:18;32.10;;;30.38;;
11039;SDS011;5573;49.592;8.662;2024-01-30T10:21:46;33.35;;;31.50;;
11039;SDS011;5573;49.592;8.662;2024-01-30T10:24:16;34.15;;;32.25;;
11039;SDS011;5573;49.592;8.662;2024-01-30T10:26:44;33.92;;;32.05;;
11039;SDS011;5573;49.592;8.662;2024-01-30T10:29:13;35.30;;;33.30;;
11039;SDS011;5573;49.592;8.662;2024-01-30T10:31:40;33.47;;;31.60;;
11039;SDS011;5573;49.592;8.662;2024-01-30T10:34:09;32.33;;;30.52;;
11039;SDS011;5573;49.592;8.662;2024-01-30T10:36:50;33.05;;;31.25;;
11039;SDS011;5573;49.592;8.662;2024-01-30T10:39:19;35.00;;;33.10;;
11039;SDS011;5573;49.592;8.662;2024-01-30T10:41:49;31.50;;;29.70;;
11039;SDS011;5573;49.592;8.662;2024-01-30T10:44:19;31.92;;;30.25;;
11039;SDS011;5573;49.592;8.662;2024-01-30T10:46:51;30.48;;;28.80;;
11039;SDS011;5573;49.592;8.662;2024-01-30T10:49:22;30.75;;;29.05;;
11039;SDS011;5573;49.592;8.662;2024-01-30T10:51:51;29.90;;;28.33;;
11039;SDS011;5573;49.592;8.662;2024-01-30T10:54:21;33.13;;;31.33;;
11039;SDS011;5573;49.592;8.662;2024-01-30T10:56:50;30.63;;;28.98;;
11039;SDS011;5573;49.592;8.662;2024-01-30T10:59:19;29.17;;;27.58;;
11039;SDS011;5573;49.592;8.662;2024-01-30T11:01:47;30.48;;;28.77;;
11039;SDS011;5573;49.592;8.662;2024-01-30T11:04:17;30.67;;;29.08;;
11039;SDS011;5573;49.592;8.662;2024-01-30T11:06:45;31.48;;;29.67;;
11039;SDS011;5573;49.592;8.662;2024-01-30T11:09:17;32.92;;;31.02;;
11039;SDS011;5573;49.592;8.662;2024-01-30T11:11:50;29.13;;;27.58;;
11039;SDS011;5573;49.592;8.662;2024-01-30T11:14:25;28.23;;;26.73;;
11039;SDS011;5573;49.592;8.662;2024-01-30T11:16:56;28.55;;;27.08;;
11039;SDS011;5573;49.592;8.662;2024-01-30T11:19:25;26.85;;;25.42;;
11039;SDS011;5573;49.592;8.662;2024-01-30T11:21:53;26.35;;;24.90;;
11039;SDS011;5573;49.592;8.662;2024-01-30T11:24:24;28.30;;;26.77;;
11039;SDS011;5573;49.592;8.662;2024-01-30T11:26:56;27.60;;;26.10;;
11039;SDS011;5573;49.592;8.662;2024-01-30T11:29:25;25.33;;;23.98;;
11039;SDS011;5573;49.592;8.662;2024-01-30T11:31:55;26.52;;;25.13;;
11039;SDS011;5573;49.592;8.662;2024-01-30T11:34:23;27.88;;;26.38;;
11039;SDS011;5573;49.592;8.662;2024-01-30T11:36:52;26.67;;;25.10;;
11039;SDS011;5573;49.592;8.662;2024-01-30T11:39:22;27.95;;;26.42;;
11039;SDS011;5573;49.592;8.662;2024-01-30T11:41:51;27.02;;;25.58;;
11039;SDS011;5573;49.592;8.662;2024-01-30T11:44:21;29.27;;;27.67;;
11039;SDS011;5573;49.592;8.662;2024-01-30T11:46:49;27.48;;;25.98;;
11039;SDS011;5573;49.592;8.662;2024-01-30T11:49:18;27.83;;;26.23;;
11039;SDS011;5573;49.592;8.662;2024-01-30T11:51:47;27.38;;;25.88;;
11039;SDS011;5573;49.592;8.662;2024-01-30T11:54:16;27.63;;;26.15;;
11039;SDS011;5573;49.592;8.662;2024-01-30T11:56:44;29.70;;;27.90;;
11039;SDS011;5573;49.592;8.662;2024-01-30T11:59:12;28.38;;;26.83;;
11039;SDS011;5573;49.592;8.662;2024-01-30T12:01:42;26.25;;;24.75;;
11039;SDS011;5573;49.592;8.662;2024-01-30T12:04:11;27.65;;;25.98;;
11039;SDS011;5573;49.592;8.662;2024-01-30T12:06:39;28.83;;;27.30;;
11039;SDS011;5573;49.592;8.662;2024-01-30T12:09:08;26.63;;;25.20;;
11039;SDS011;5573;49.592;8.662;2024-01-30T12:11:45;28.70;;;27.15;;
11039;SDS011;5573;49.592;8.662;2024-01-30T12:14:13;29.42;;;27.90;;
11039;SDS011;5573;49.592;8.662;2024-01-30T12:16:43;30.55;;;28.88;;
11039;SDS011;5573;49.592;8.662;2024-01-30T12:19:11;33.78;;;31.95;;
11039;SDS011;5573;49.592;8.662;2024-01-30T12:21:53;32.28;;;30.45;;
11039;SDS011;5573;49.592;8.662;2024-01-30T12:24:21;32.28;;;30.45;;
11039;SDS011;5573;49.592;8.662;2024-01-30T12:26:50;30.30;;;28.20;;
11039;SDS011;5573;49.592;8.662;2024-01-30T12:29:19;30.50;;;28.83;;
11039;SDS011;5573;49.592;8.662;2024-01-30T12:31:52;30.10;;;28.45;;
11039;SDS011;5573;49.592;8.662;2024-01-30T12:34:20;29.15;;;27.55;;
11039;SDS011;5573;49.592;8.662;2024-01-30T12:36:48;30.15;;;28.27;;
11039;SDS011;5573;49.592;8.662;2024-01-30T12:39:17;30.50;;;28.67;;
11039;SDS011;5573;49.592;8.662;2024-01-30T12:41:45;30.45;;;28.80;;
11039;SDS011;5573;49.592;8.662;2024-01-30T12:44:13;29.20;;;27.67;;
11039;SDS011;5573;49.592;8.662;2024-01-30T12:46:42;28.45;;;26.90;;
11039;SDS011;5573;49.592;8.662;2024-01-30T12:49:13;30.42;;;28.80;;
11039;SDS011;5573;49.592;8.662;2024-01-30T12:51:41;31.17;;;29.55;;
11039;SDS011;5573;49.592;8.662;2024-01-30T12:54:09;29.95;;;28.35;;
11039;SDS011;5573;49.592;8.662;2024-01-30T12:56:37;29.02;;;27.42;;
11039;SDS011;5573;49.592;8.662;2024-01-30T12:59:05;31.27;;;29.63;;
11039;SDS011;5573;49.592;8.662;2024-01-30T13:01:34;31.70;;;29.95;;
11039;SDS011;5573;49.592;8.662;2024-01-30T13:04:02;31.25;;;29.50;;
11039;SDS011;5573;49.592;8.662;2024-01-30T13:06:31;28.83;;;27.27;;
11039;SDS011;5573;49.592;8.662;2024-01-30T13:09:00;29.25;;;27.48;;
11039;SDS011;5573;49.592;8.662;2024-01-30T13:11:28;30.83;;;29.13;;
11039;SDS011;5573;49.592;8.662;2024-01-30T13:13:56;31.15;;;29.42;;
11039;SDS011;5573;49.592;8.662;2024-01-30T13:16:25;30.63;;;28.83;;
11039;SDS011;5573;49.592;8.662;2024-01-30T13:18:53;31.17;;;29.27;;
11039;SDS011;5573;49.592;8.662;2024-01-30T13:21:22;32.70;;;30.92;;
11039;SDS011;5573;49.592;8.662;2024-01-30T13:23:51;30.38;;;28.70;;
11039;SDS011;5573;49.592;8.662;2024-01-30T13:26:21;33.17;;;31.27;;
11039;SDS011;5573;49.592;8.662;2024-01-30T13:28:49;31.70;;;29.92;;
11039;SDS011;5573;49.592;8.662;2024-01-30T13:31:17;32.17;;;30.48;;
11039;SDS011;5573;49.592;8.662;2024-01-30T13:33:46;31.63;;;29.85;;
11039;SDS011;5573;49.592;8.662;2024-01-30T13:36:15;31.55;;;29.85;;
11039;SDS011;5573;49.592;8.662;2024-01-30T13:38:43;31.90;;;30.10;;
11039;SDS011;5573;49.592;8.662;2024-01-30T13:41:13;31.90;;;30.10;;
11039;SDS011;5573;49.592;8.662;2024-01-30T13:43:41;30.92;;;29.23;;
11039;SDS011;5573;49.592;8.662;2024-01-30T13:46:09;30.05;;;28.27;;
11039;SDS011;5573;49.592;8.662;2024-01-30T13:48:38;31.70;;;29.92;;
11039;SDS011;5573;49.592;8.662;2024-01-30T13:51:06;32.38;;;30.63;;
11039;SDS011;5573;49.592;8.662;2024-01-30T13:53:34;29.77;;;28.20;;
11039;SDS011;5573;49.592;8.662;2024-01-30T13:56:02;33.97;;;32.00;;
11039;SDS011;5573;49.592;8.662;2024-01-30T13:58:31;36.25;;;34.15;;
11039;SDS011;5573;49.592;8.662;2024-01-30T14:01:01;33.97;;;32.08;;
11039;SDS011;5573;49.592;8.662;2024-01-30T14:03:29;34.78;;;32.88;;
11039;SDS011;5573;49.592;8.662;2024-01-30T14:05:57;34.78;;;32.85;;
11039;SDS011;5573;49.592;8.662;2024-01-30T14:08:26;36.33;;;34.33;;
11039;SDS011;5573;49.592;8.662;2024-01-30T14:10:54;31.85;;;30.13;;
11039;SDS011;5573;49.592;8.662;2024-01-30T14:13:23;33.90;;;32.10;;
11039;SDS011;5573;49.592;8.662;2024-01-30T14:15:53;33.72;;;31.88;;
11039;SDS011;5573;49.592;8.662;2024-01-30T14:18:21;36.67;;;34.63;;
11039;SDS011;5573;49.592;8.662;2024-01-30T14:20:49;35.70;;;33.75;;
11039;SDS011;5573;49.592;8.662;2024-01-30T14:23:18;34.22;;;32.22;;
11039;SDS011;5573;49.592;8.662;2024-01-30T14:25:46;33.88;;;32.03;;
11039;SDS011;5573;49.592;8.662;2024-01-30T14:28:14;34.13;;;32.28;;
11039;SDS011;5573;49.592;8.662;2024-01-30T14:30:42;37.00;;;35.05;;
11039;SDS011;5573;49.592;8.662;2024-01-30T14:33:12;34.95;;;32.83;;
11039;SDS011;5573;49.592;8.662;2024-01-30T14:35:41;35.08;;;33.15;;
11039;SDS011;5573;49.592;8.662;2024-01-30T14:38:09;37.33;;;35.33;;
11039;SDS011;5573;49.592;8.662;2024-01-30T14:40:38;34.90;;;32.97;;